Time;durP1;ratioP1;P1;durP2;ratioP2;P2;SDS_P1;SDS_P2;PMS_P1;PMS_P2;Temp;Humidity;BMP_temperature;BMP_pressure;BME280_temperature;BME280_humidity;BME280_pressure;Samples;Min_cycle;Max_cycle;Signal;HPM_P1;HPM_P2
2023/09/25 00:01:13;;;;;;;0.40;0.40;;;;;;;15.21;82.04;100305.13;5075912;28;20240;-61
2023/09/25 00:03:42;;;;;;;1.23;0.98;;;;;;;15.20;82.20;100318.03;5075630;28;20110;-62
2023/09/25 00:06:12;;;;;;;0.60;0.60;;;;;;;15.18;82.36;100317.19;5075794;28;20102;-61
2023/09/25 00:08:41;;;;;;;0.40;0.40;;;;;;;15.18;82.10;100314.63;5075495;28;20049;-61
2023/09/25 00:11:10;;;;;;;0.93;0.87;;;;;;;15.19;81.97;100313.72;5075761;28;20053;-61
2023/09/25 00:13:40;;;;;;;0.45;0.45;;;;;;;15.16;81.79;100303.50;5075429;28;20284;-61
2023/09/25 00:16:13;;;;;;;0.87;0.70;;;;;;;15.14;82.05;100312.94;5075304;28;20047;-61
2023/09/25 00:18:42;;;;;;;0.57;0.57;;;;;;;15.11;81.87;100310.41;5075421;28;20327;-61
2023/09/25 00:21:13;;;;;;;0.70;0.70;;;;;;;15.06;81.99;100292.44;5075172;28;20047;-61
2023/09/25 00:23:42;;;;;;;0.57;0.57;;;;;;;14.98;82.09;100293.34;5075279;28;20043;-61
2023/09/25 00:26:13;;;;;;;0.50;0.50;;;;;;;14.99;82.52;100310.50;5075123;28;20492;-61
2023/09/25 00:28:49;;;;;;;0.40;0.40;;;;;;;15.00;82.30;100307.03;5075404;28;20811;-61
2023/09/25 00:31:21;;;;;;;1.58;0.75;;;;;;;15.03;82.50;100286.47;5075081;28;20044;-62
2023/09/25 00:33:52;;;;;;;2.45;0.63;;;;;;;15.05;82.38;100289.88;5075013;28;20114;-62
2023/09/25 00:36:22;;;;;;;0.47;0.47;;;;;;;15.07;82.33;100290.72;5075181;28;20484;-62
2023/09/25 00:38:51;;;;;;;0.55;0.55;;;;;;;15.10;82.75;100294.13;5075030;28;20044;-61
2023/09/25 00:41:21;;;;;;;5.03;1.35;;;;;;;15.06;82.70;100302.72;5073781;28;20044;-61
2023/09/25 00:43:50;;;;;;;0.47;0.47;;;;;;;15.06;82.65;100301.88;5074642;28;20083;-61
2023/09/25 00:46:19;;;;;;;0.60;0.60;;;;;;;15.10;82.48;100300.97;5074737;28;20281;-61
2023/09/25 00:48:49;;;;;;;3.40;1.40;;;;;;;15.08;82.47;100295.84;5074682;28;20136;-61
2023/09/25 00:51:20;;;;;;;0.40;0.40;;;;;;;15.10;82.66;100298.41;5074790;28;20048;-61
2023/09/25 00:53:50;;;;;;;1.00;0.90;;;;;;;15.11;82.83;100294.97;5075179;28;20040;-62
2023/09/25 00:56:21;;;;;;;0.98;0.82;;;;;;;15.14;82.39;100294.94;5073341;28;20101;-61
2023/09/25 00:58:49;;;;;;;;;;;;;;;15.16;82.44;100294.06;5074946;28;20055;-61
2023/09/25 01:01:19;;;;;;;0.63;0.63;;;;;;;15.18;82.44;100299.19;5074942;28;19943;-61
2023/09/25 01:03:49;;;;;;;0.40;0.40;;;;;;;15.21;82.32;100292.28;5074751;28;20048;-62
2023/09/25 01:06:18;;;;;;;0.40;0.40;;;;;;;15.24;82.71;100288.81;5073731;28;20064;-62
2023/09/25 01:08:47;;;;;;;0.40;0.40;;;;;;;15.27;82.68;100281.09;5074251;28;20048;-61
2023/09/25 01:11:18;;;;;;;0.40;0.40;;;;;;;15.28;83.27;100280.22;5074624;28;20048;-61
2023/09/25 01:13:47;;;;;;;0.40;0.40;;;;;;;15.30;83.02;100275.91;5073073;28;20136;-61
2023/09/25 01:16:16;;;;;;;0.30;0.30;;;;;;;15.31;82.69;100260.47;5074734;28;20404;-62
2023/09/25 01:18:45;;;;;;;0.55;0.50;;;;;;;15.31;82.60;100280.19;5074099;28;20068;-61
2023/09/25 01:21:14;;;;;;;0.50;0.50;;;;;;;15.30;82.66;100281.94;5073856;28;20450;-61
2023/09/25 01:23:44;;;;;;;0.40;0.40;;;;;;;15.30;82.46;100278.50;5072902;28;20068;-62
2023/09/25 01:26:13;;;;;;;0.47;0.47;;;;;;;15.30;82.41;100275.91;5073130;28;20423;-62
2023/09/25 01:28:42;;;;;;;0.52;0.52;;;;;;;15.28;82.27;100275.09;5074200;28;20048;-61
2023/09/25 01:31:11;;;;;;;2.80;0.68;;;;;;;15.26;82.43;100269.94;5074302;28;20048;-61
2023/09/25 01:33:41;;;;;;;0.50;0.50;;;;;;;15.32;82.21;100264.75;5073854;28;20044;-61
2023/09/25 01:36:11;;;;;;;0.60;0.60;;;;;;;15.35;82.21;100259.59;5073839;28;20136;-61
2023/09/25 01:38:41;;;;;;;0.50;0.50;;;;;;;15.39;82.35;100250.09;5072761;28;20510;-62
2023/09/25 01:41:11;;;;;;;0.50;0.50;;;;;;;15.35;82.28;100253.56;5073770;28;20079;-61
2023/09/25 01:43:40;;;;;;;0.40;0.40;;;;;;;15.36;82.02;100244.97;5073634;28;20393;-62
2023/09/25 01:46:10;;;;;;;0.50;0.50;;;;;;;15.37;82.14;100242.41;5073699;28;20048;-61
2023/09/25 01:48:38;;;;;;;0.43;0.43;;;;;;;15.43;81.98;100241.47;5073695;28;20045;-61
2023/09/25 01:51:11;;;;;;;1.02;1.00;;;;;;;15.47;81.96;100238.03;5073701;28;20045;-61
2023/09/25 01:53:40;;;;;;;0.50;0.50;;;;;;;15.47;81.60;100235.47;5073854;28;20087;-62
2023/09/25 01:56:14;;;;;;;0.30;0.30;;;;;;;15.47;81.48;100227.75;5073631;28;20053;-61
2023/09/25 01:58:44;;;;;;;0.40;0.40;;;;;;;15.45;81.08;100229.50;5072428;28;20045;-61
2023/09/25 02:01:13;;;;;;;0.57;0.57;;;;;;;15.43;81.51;100232.03;5072260;28;20040;-61
2023/09/25 02:03:42;;;;;;;0.40;0.40;;;;;;;15.45;81.25;100226.91;5072407;28;20064;-61
2023/09/25 02:06:12;;;;;;;0.70;0.60;;;;;;;15.41;81.29;100225.19;5073768;28;20048;-61
2023/09/25 02:08:41;;;;;;;0.40;0.40;;;;;;;15.38;81.40;100233.81;5072374;28;20064;-61
2023/09/25 02:11:10;;;;;;;0.50;0.50;;;;;;;15.37;81.60;100226.13;5073236;28;20047;-61
2023/09/25 02:13:40;;;;;;;0.50;0.50;;;;;;;15.41;81.92;100227.78;5073399;28;20052;-61
2023/09/25 02:16:09;;;;;;;1.88;0.60;;;;;;;15.43;81.54;100220.88;5072577;28;20392;-61
2023/09/25 02:18:38;;;;;;;0.60;0.60;;;;;;;15.42;82.18;100219.19;5072255;28;20051;-62
2023/09/25 02:21:07;;;;;;;0.40;0.40;;;;;;;15.38;82.08;100222.66;5072479;28;20431;-62
2023/09/25 02:23:39;;;;;;;0.70;0.70;;;;;;;15.34;82.21;100223.56;5073464;28;20048;-61
2023/09/25 02:26:08;;;;;;;0.60;0.60;;;;;;;15.29;82.26;100222.75;5072171;28;20055;-61
2023/09/25 02:28:36;;;;;;;0.50;0.50;;;;;;;15.27;82.33;100232.22;5072099;28;20059;-61
2023/09/25 02:31:07;;;;;;;0.40;0.40;;;;;;;15.23;82.73;100239.13;5072639;28;20535;-61
2023/09/25 02:33:36;;;;;;;0.47;0.47;;;;;;;15.22;82.90;100236.56;5074903;28;20495;-61
2023/09/25 02:36:06;;;;;;;0.47;0.47;;;;;;;15.20;82.67;100236.59;5077594;28;20037;-61
2023/09/25 02:38:35;;;;;;;0.40;0.40;;;;;;;15.19;82.65;100241.72;5076064;28;20041;-61
2023/09/25 02:41:04;;;;;;;0.52;0.50;;;;;;;15.15;82.89;100237.50;5077213;28;20086;-61
2023/09/25 02:43:32;;;;;;;0.50;0.50;;;;;;;15.14;82.75;100235.81;5077573;28;20056;-61
2023/09/25 02:46:01;;;;;;;0.40;0.40;;;;;;;15.12;82.87;100230.66;5077112;28;20044;-61
2023/09/25 02:48:32;;;;;;;0.40;0.40;;;;;;;15.09;82.75;100225.53;5077019;28;20098;-61
2023/09/25 02:51:01;;;;;;;0.47;0.47;;;;;;;15.05;82.97;100225.59;5076062;28;20048;-61
2023/09/25 02:53:32;;;;;;;0.40;0.40;;;;;;;15.02;83.29;100223.91;5076877;28;20048;-61
2023/09/25 02:56:01;;;;;;;0.47;0.47;;;;;;;15.03;83.16;100217.91;5076875;28;20041;-61
2023/09/25 02:58:30;;;;;;;0.37;0.37;;;;;;;14.98;83.35;100222.25;5076909;28;20071;-61
2023/09/25 03:01:00;;;;;;;0.50;0.50;;;;;;;14.91;83.35;100225.75;5077389;28;20079;-61
2023/09/25 03:03:30;;;;;;;0.47;0.47;;;;;;;14.92;83.52;100229.16;5076626;28;20082;-61
2023/09/25 03:06:00;;;;;;;0.80;0.80;;;;;;;14.97;83.86;100233.38;5075836;28;20484;-61
2023/09/25 03:08:30;;;;;;;0.55;0.55;;;;;;;15.04;83.57;100247.03;5076664;28;20048;-62
2023/09/25 03:10:59;;;;;;;0.60;0.60;;;;;;;15.01;83.58;100244.50;5076559;28;20051;-62
2023/09/25 03:13:28;;;;;;;0.57;0.55;;;;;;;15.01;83.66;100245.34;5076490;28;20040;-61
2023/09/25 03:15:57;;;;;;;0.50;0.50;;;;;;;15.00;83.66;100255.63;5076473;28;20106;-61
2023/09/25 03:18:26;;;;;;;0.77;0.77;;;;;;;14.96;84.16;100256.53;5075275;28;20278;-61
2023/09/25 03:20:55;;;;;;;0.50;0.50;;;;;;;15.00;83.72;100260.78;5076473;28;20583;-61
2023/09/25 03:23:25;;;;;;;1.95;0.52;;;;;;;15.06;84.13;100260.72;5075028;28;20051;-61
2023/09/25 03:25:54;;;;;;;0.80;0.80;;;;;;;15.09;84.08;100261.53;5076222;28;20053;-61
2023/09/25 03:28:24;;;;;;;0.40;0.40;;;;;;;15.15;84.05;100268.34;5075688;28;20442;-61
2023/09/25 03:30:53;;;;;;;0.40;0.40;;;;;;;15.19;84.54;100272.59;5076220;28;20040;-61
2023/09/25 03:33:27;;;;;;;0.50;0.50;;;;;;;15.20;84.06;100275.16;5076304;28;20056;-61
2023/09/25 03:35:56;;;;;;;0.70;0.70;;;;;;;15.20;84.08;100266.59;5076361;28;20056;-61
2023/09/25 03:38:26;;;;;;;0.30;0.30;;;;;;;15.18;84.19;100265.75;5076119;28;20047;-61
2023/09/25 03:40:55;;;;;;;0.50;0.50;;;;;;;15.18;84.32;100273.47;5076321;28;20270;-61
2023/09/25 03:43:24;;;;;;;0.60;0.60;;;;;;;15.15;84.19;100266.63;5075642;28;20496;-61
2023/09/25 03:45:53;;;;;;;0.63;0.50;;;;;;;15.15;84.33;100266.63;5074841;28;20036;-61
2023/09/25 03:48:23;;;;;;;0.40;0.40;;;;;;;15.20;84.11;100264.00;5075920;28;20040;-61
2023/09/25 03:50:52;;;;;;;0.60;0.60;;;;;;;15.21;84.24;100263.16;5075815;28;20037;-61
2023/09/25 03:53:21;;;;;;;0.40;0.40;;;;;;;15.20;84.24;100254.59;5076112;28;20405;-61
2023/09/25 03:55:51;;;;;;;0.60;0.60;;;;;;;15.21;84.33;100255.44;5075985;28;20040;-61
2023/09/25 03:58:20;;;;;;;0.40;0.40;;;;;;;15.22;84.15;100257.13;5075778;28;20049;-61
2023/09/25 04:00:52;;;;;;;0.60;0.60;;;;;;;15.23;84.52;100261.41;5075686;28;20506;-61
2023/09/25 04:03:21;;;;;;;0.55;0.55;;;;;;;15.26;84.15;100264.78;5075912;28;20549;-61
2023/09/25 04:05:50;;;;;;;0.70;0.70;;;;;;;15.26;84.16;100258.81;5075499;28;20036;-61
2023/09/25 04:08:19;;;;;;;0.43;0.43;;;;;;;15.25;84.47;100269.97;5076333;28;20511;-61
2023/09/25 04:10:48;;;;;;;0.40;0.40;;;;;;;15.23;84.50;100271.72;5075531;28;20280;-61
2023/09/25 04:13:22;;;;;;;0.47;0.47;;;;;;;15.20;84.51;100256.31;5075842;28;20043;-61
2023/09/25 04:15:51;;;;;;;0.55;0.55;;;;;;;15.19;84.42;100245.16;5075622;28;20089;-61
2023/09/25 04:18:21;;;;;;;0.60;0.60;;;;;;;15.13;84.68;100252.94;5075579;28;20040;-61
2023/09/25 04:20:50;;;;;;;0.50;0.50;;;;;;;15.10;84.59;100268.41;5075339;28;20070;-61
2023/09/25 04:23:19;;;;;;;0.50;0.50;;;;;;;15.07;84.58;100267.59;5075163;28;20496;-61
2023/09/25 04:25:52;;;;;;;0.50;0.50;;;;;;;15.09;84.68;100271.00;5075719;28;20376;-61
2023/09/25 04:28:22;;;;;;;0.40;0.40;;;;;;;15.10;84.26;100264.97;5075421;28;20483;-61
2023/09/25 04:30:53;;;;;;;0.47;0.47;;;;;;;15.06;84.74;100260.72;5075188;28;20040;-61
2023/09/25 04:33:22;;;;;;;0.38;0.38;;;;;;;15.04;84.79;100262.47;5075612;28;20416;-61
2023/09/25 04:35:52;;;;;;;2.10;1.90;;;;;;;15.05;84.96;100264.16;5075026;28;20094;-61
2023/09/25 04:38:21;;;;;;;;;;;;;;;15.04;84.71;100267.63;5075371;28;20277;-61
2023/09/25 04:40:51;;;;;;;0.30;0.30;;;;;;;15.02;84.93;100270.19;5075232;28;19920;-61
2023/09/25 04:43:20;;;;;;;0.30;0.30;;;;;;;15.04;85.00;100272.75;5074709;28;20056;-61
2023/09/25 04:45:52;;;;;;;0.67;0.57;;;;;;;15.03;84.99;100266.75;5074762;28;20051;-61
2023/09/25 04:48:21;;;;;;;0.63;0.63;;;;;;;15.03;84.92;100274.47;5074804;28;20045;-61
2023/09/25 04:50:50;;;;;;;0.40;0.40;;;;;;;15.02;85.13;100279.63;5075640;28;20047;-61
2023/09/25 04:53:20;;;;;;;0.43;0.43;;;;;;;15.01;84.80;100278.78;5074527;28;20047;-61
2023/09/25 04:55:49;;;;;;;0.60;0.60;;;;;;;15.03;85.00;100286.47;5073868;28;20044;-61
2023/09/25 04:58:18;;;;;;;0.57;0.57;;;;;;;15.04;84.72;100283.03;5074780;28;20526;-61
2023/09/25 05:00:49;;;;;;;0.47;0.47;;;;;;;15.03;85.22;100281.31;5074445;28;20060;-61
2023/09/25 05:03:18;;;;;;;0.60;0.60;;;;;;;15.01;85.10;100277.91;5074439;28;20136;-61
2023/09/25 05:05:47;;;;;;;0.75;0.73;;;;;;;15.01;85.03;100283.06;5074328;28;20051;-61
2023/09/25 05:08:16;;;;;;;0.50;0.50;;;;;;;15.01;85.10;100293.34;5074655;28;20079;-61
2023/09/25 05:10:45;;;;;;;0.93;0.70;;;;;;;15.06;85.28;100289.00;5074413;28;20053;-61
2023/09/25 05:13:15;;;;;;;0.50;0.50;;;;;;;15.11;85.20;100287.25;5074340;28;20051;-61
2023/09/25 05:15:44;;;;;;;0.60;0.60;;;;;;;15.13;85.00;100288.09;5074499;28;20457;-61
2023/09/25 05:18:14;;;;;;;0.50;0.50;;;;;;;15.12;84.82;100281.22;5074125;28;20044;-61
2023/09/25 05:20:43;;;;;;;0.40;0.40;;;;;;;15.15;84.88;100276.06;5074461;28;20076;-61
2023/09/25 05:23:12;;;;;;;0.50;0.50;;;;;;;15.17;84.68;100269.19;5074309;28;20071;-61
2023/09/25 05:25:42;;;;;;;0.68;0.60;;;;;;;15.18;84.77;100265.75;5074499;28;20048;-61
2023/09/25 05:28:11;;;;;;;0.50;0.50;;;;;;;15.19;85.04;100272.59;5074587;28;20048;-61
2023/09/25 05:30:39;;;;;;;0.70;0.70;;;;;;;15.23;84.99;100274.28;5073846;28;20055;-61
2023/09/25 05:33:09;;;;;;;0.70;0.70;;;;;;;15.24;85.00;100286.25;5074437;28;20048;-61
2023/09/25 05:35:39;;;;;;;0.85;0.70;;;;;;;15.26;84.61;100294.84;5073538;28;20044;-61
2023/09/25 05:38:08;;;;;;;0.60;0.60;;;;;;;15.24;84.57;100296.53;5074105;28;20437;-61
2023/09/25 05:40:37;;;;;;;1.67;0.63;;;;;;;15.30;84.57;100299.06;5073981;28;20397;-61
2023/09/25 05:43:06;;;;;;;0.40;0.40;;;;;;;15.35;84.70;100294.72;5073598;28;20047;-61
2023/09/25 05:45:35;;;;;;;0.40;0.40;;;;;;;15.43;84.78;100298.91;5074143;28;20288;-61
2023/09/25 05:48:04;;;;;;;0.50;0.50;;;;;;;15.52;84.67;100308.31;5073651;28;20075;-61
2023/09/25 05:50:34;;;;;;;0.73;0.70;;;;;;;15.62;84.28;100303.91;5070294;28;20475;-62
2023/09/25 05:53:04;;;;;;;0.50;0.50;;;;;;;15.74;84.34;100304.59;5072841;28;20041;-61
2023/09/25 05:55:33;;;;;;;0.55;0.55;;;;;;;15.84;84.27;100306.22;5073870;28;20044;-61
2023/09/25 05:58:03;;;;;;;0.43;0.43;;;;;;;15.94;83.76;100297.50;5073512;28;20037;-62
2023/09/25 06:00:34;;;;;;;0.52;0.52;;;;;;;16.04;83.20;100306.81;5072831;28;20576;-61
2023/09/25 06:03:04;;;;;;;0.30;0.30;;;;;;;16.15;82.95;100316.13;5073404;28;20041;-61
2023/09/25 06:05:33;;;;;;;0.30;0.30;;;;;;;16.21;82.68;100321.19;5073469;28;20045;-61
2023/09/25 06:08:04;;;;;;;1.10;1.00;;;;;;;16.27;82.14;100326.28;5073508;28;20496;-61
2023/09/25 06:10:33;;;;;;;0.82;0.82;;;;;;;16.32;81.85;100316.75;5072552;28;20048;-62
2023/09/25 06:13:01;;;;;;;0.50;0.50;;;;;;;16.42;81.41;100318.31;5073400;28;20040;-62
2023/09/25 06:15:32;;;;;;;0.65;0.65;;;;;;;16.52;81.36;100323.38;5073651;28;20036;-62
2023/09/25 06:18:02;;;;;;;0.80;0.75;;;;;;;16.59;80.91;100324.13;5073322;28;20098;-62
2023/09/25 06:20:31;;;;;;;0.50;0.50;;;;;;;16.66;80.88;100330.88;5071433;28;20061;-61
2023/09/25 06:23:01;;;;;;;0.60;0.60;;;;;;;16.74;80.91;100339.38;5073263;28;20056;-62
2023/09/25 06:25:32;;;;;;;0.77;0.73;;;;;;;16.80;81.12;100339.25;5073292;28;20036;-62
2023/09/25 06:28:02;;;;;;;7.95;7.15;;;;;;;16.80;81.42;100339.25;5073446;28;20300;-62
2023/09/25 06:30:31;;;;;;;1.50;1.40;;;;;;;16.78;81.58;100346.16;5072902;28;20037;-62
2023/09/25 06:33:00;;;;;;;0.60;0.60;;;;;;;16.74;81.42;100344.53;5073357;28;20037;-62
2023/09/25 06:35:29;;;;;;;0.40;0.40;;;;;;;16.74;81.30;100340.22;5073199;28;20049;-62
2023/09/25 06:37:58;;;;;;;0.40;0.40;;;;;;;16.74;81.31;100349.69;5073101;28;20040;-62
2023/09/25 06:40:27;;;;;;;0.43;0.43;;;;;;;16.73;81.18;100347.97;5071869;28;20067;-62
2023/09/25 06:42:57;;;;;;;0.60;0.60;;;;;;;16.73;81.08;100345.38;5071421;28;20052;-62
2023/09/25 06:45:26;;;;;;;0.40;0.40;;;;;;;16.82;81.13;100350.38;5073374;28;20381;-62
2023/09/25 06:47:55;;;;;;;0.50;0.50;;;;;;;17.00;80.99;100342.38;5073274;28;20118;-62
2023/09/25 06:50:24;;;;;;;3.20;1.05;;;;;;;17.26;80.78;100340.22;5072744;28;20033;-62
2023/09/25 06:52:53;;;;;;;0.47;0.47;;;;;;;17.44;80.33;100337.28;5072598;28;20075;-62
2023/09/25 06:55:22;;;;;;;0.40;0.40;;;;;;;17.57;79.96;100340.53;5073253;28;20477;-62
2023/09/25 06:57:50;;;;;;;0.47;0.47;;;;;;;17.65;79.44;100345.56;5072146;28;22554;-62
2023/09/25 07:00:23;;;;;;;0.70;0.68;;;;;;;17.69;79.07;100344.63;5073126;28;20400;-62
2023/09/25 07:02:52;;;;;;;0.45;0.45;;;;;;;17.83;78.84;100342.63;5073247;28;20045;-62
2023/09/25 07:05:22;;;;;;;0.50;0.50;;;;;;;17.92;78.01;100347.63;5072959;28;20086;-62
2023/09/25 07:07:52;;;;;;;0.40;0.40;;;;;;;18.03;77.37;100350.84;5072884;28;20041;-62
2023/09/25 07:10:22;;;;;;;0.63;0.63;;;;;;;18.15;76.79;100355.75;5072572;28;20051;-62
2023/09/25 07:12:51;;;;;;;0.70;0.70;;;;;;;18.27;76.44;100355.50;5073257;28;20056;-62
2023/09/25 07:15:21;;;;;;;;;;;;;;;18.37;76.03;100363.91;5073693;28;20396;-62
2023/09/25 07:17:50;;;;;;;0.40;0.40;;;;;;;18.38;75.70;100369.03;5072805;28;19967;-62
2023/09/25 07:20:19;;;;;;;0.50;0.50;;;;;;;18.48;75.71;100359.38;5077536;28;20128;-62
2023/09/25 07:22:48;;;;;;;0.63;0.63;;;;;;;18.59;75.22;100368.63;5076331;28;20040;-62
2023/09/25 07:25:17;;;;;;;0.32;0.32;;;;;;;18.62;74.77;100372.84;5075148;28;20051;-62
2023/09/25 07:27:46;;;;;;;0.40;0.40;;;;;;;18.73;74.70;100371.75;5076374;28;20039;-62
2023/09/25 07:30:15;;;;;;;0.70;0.68;;;;;;;18.87;74.54;100378.31;5079822;28;20358;-62
2023/09/25 07:32:45;;;;;;;1.67;1.02;;;;;;;19.02;74.44;100377.97;5076118;28;20543;-62
2023/09/25 07:35:15;;;;;;;0.50;0.50;;;;;;;19.09;74.06;100384.69;5076446;28;20041;-62
2023/09/25 07:37:44;;;;;;;0.40;0.40;;;;;;;19.12;73.90;100388.03;5076049;28;20051;-62
2023/09/25 07:40:14;;;;;;;0.40;0.40;;;;;;;19.29;74.11;100385.06;5075306;28;20546;-62
2023/09/25 07:42:43;;;;;;;0.88;0.60;;;;;;;19.38;73.33;100387.47;5075870;28;20052;-62
2023/09/25 07:45:14;;;;;;;2.13;1.58;;;;;;;19.45;72.85;100391.59;5075187;28;20044;-62
2023/09/25 07:47:46;;;;;;;1.55;1.33;;;;;;;19.51;72.37;100382.81;5074318;28;20135;-62
2023/09/25 07:50:15;;;;;;;0.50;0.50;;;;;;;19.57;71.99;100388.69;5087893;28;20122;-62
2023/09/25 07:52:43;;;;;;;0.50;0.50;;;;;;;19.58;71.97;100395.56;5077071;28;20049;-62
2023/09/25 07:55:12;;;;;;;0.50;0.50;;;;;;;19.65;71.50;100401.44;5076003;28;20067;-62
2023/09/25 07:57:43;;;;;;;0.50;0.50;;;;;;;19.65;71.31;100399.69;5075046;28;20294;-62
2023/09/25 08:00:17;;;;;;;0.70;0.70;;;;;;;19.65;71.15;100394.50;5076024;28;20400;-62
2023/09/25 08:02:48;;;;;;;0.50;0.50;;;;;;;19.65;71.20;100401.44;5074611;28;20037;-62
2023/09/25 08:05:19;;;;;;;0.52;0.52;;;;;;;19.77;70.82;100399.34;5075619;28;20052;-62
2023/09/25 08:07:49;;;;;;;1.30;1.20;;;;;;;19.81;70.63;100392.38;5074883;28;20037;-62
2023/09/25 08:10:20;;;;;;;0.95;0.95;;;;;;;19.85;70.16;100394.84;5075857;28;20056;-62
2023/09/25 08:12:49;;;;;;;0.40;0.40;;;;;;;19.96;70.52;100392.78;5075299;28;20044;-62
2023/09/25 08:15:18;;;;;;;0.50;0.50;;;;;;;20.12;70.11;100397.56;5075998;28;20040;-62
2023/09/25 08:17:48;;;;;;;0.50;0.50;;;;;;;20.17;69.63;100395.69;5075679;28;20048;-62
2023/09/25 08:20:22;;;;;;;1.98;0.57;;;;;;;20.23;69.49;100398.97;5074794;28;20079;-62
2023/09/25 08:22:53;;;;;;;0.40;0.40;;;;;;;20.32;69.38;100403.06;5077075;28;20055;-62
2023/09/25 08:25:23;;;;;;;0.30;0.30;;;;;;;20.39;69.09;100396.81;5074048;28;20051;-62
2023/09/25 08:27:53;;;;;;;0.70;0.70;;;;;;;20.46;68.55;100406.09;5075168;28;20059;-62
2023/09/25 08:30:22;;;;;;;0.50;0.50;;;;;;;20.58;68.42;100408.34;5073244;28;20044;-62
2023/09/25 08:32:53;;;;;;;0.60;0.60;;;;;;;20.69;68.46;100401.06;5075910;28;20093;-62
2023/09/25 08:35:23;;;;;;;0.30;0.30;;;;;;;20.82;68.28;100398.97;5072957;28;20063;-62
2023/09/25 08:37:52;;;;;;;;;;;;;;;20.88;68.06;100412.59;5075892;28;20454;-62
2023/09/25 08:40:21;;;;;;;0.60;0.60;;;;;;;20.93;67.72;100409.84;5075355;28;20406;-62
2023/09/25 08:42:51;;;;;;;0.45;0.45;;;;;;;20.96;67.37;100410.59;5074773;28;20076;-62
2023/09/25 08:45:38;;;;;;;2.08;0.68;;;;;;;20.97;66.78;100416.66;5054761;28;20053;-62
2023/09/25 08:48:11;;;;;;;0.40;0.40;;;;;;;21.05;66.90;100415.53;5055189;28;20045;-62
2023/09/25 08:50:41;;;;;;;0.75;0.70;;;;;;;21.09;66.47;100406.75;5068713;28;20492;-62
2023/09/25 08:53:10;;;;;;;0.50;0.50;;;;;;;21.20;66.88;100409.88;5074092;28;20117;-63
2023/09/25 08:55:40;;;;;;;0.52;0.52;;;;;;;21.34;66.76;100407.66;5074621;28;20377;-62
2023/09/25 08:58:10;;;;;;;0.85;0.85;;;;;;;21.44;66.73;100412.53;5074055;28;20051;-62
2023/09/25 09:00:40;;;;;;;0.40;0.40;;;;;;;21.53;66.50;100409.63;5074472;28;20072;-62
2023/09/25 09:03:10;;;;;;;0.40;0.40;;;;;;;21.64;66.42;100410.13;5073066;28;20041;-63
2023/09/25 09:05:39;;;;;;;0.40;0.40;;;;;;;21.79;66.27;100406.97;5074783;28;20080;-62
2023/09/25 09:08:09;;;;;;;0.63;0.63;;;;;;;22.01;66.82;100410.56;5074210;28;20127;-62
2023/09/25 09:10:40;;;;;;;0.40;0.40;;;;;;;22.18;66.59;100408.22;5074298;28;20060;-62
2023/09/25 09:13:10;;;;;;;0.70;0.70;;;;;;;22.16;65.71;100410.03;5073780;28;20094;-63
2023/09/25 09:15:41;;;;;;;0.50;0.50;;;;;;;22.12;65.52;100405.84;5069439;28;20055;-62
2023/09/25 09:18:23;;;;;;;0.43;0.43;;;;;;;22.13;65.26;100404.94;5073925;28;20049;-62
2023/09/25 09:20:56;;;;;;;0.52;0.52;;;;;;;22.21;65.49;100402.91;5074090;28;20048;-62
2023/09/25 09:23:39;;;;;;;0.50;0.50;;;;;;;22.39;65.57;100403.97;5075129;28;20068;-62
2023/09/25 09:26:10;;;;;;;0.68;0.68;;;;;;;22.41;65.52;100405.59;5070056;28;20126;-62
2023/09/25 09:28:42;;;;;;;0.50;0.50;;;;;;;22.45;65.26;100407.19;5075305;28;20113;-62
2023/09/25 09:31:11;;;;;;;0.50;0.50;;;;;;;22.45;64.89;100402.00;5074530;28;20055;-62
2023/09/25 09:33:42;;;;;;;0.60;0.60;;;;;;;22.53;64.61;100409.50;5072321;28;20044;-62
2023/09/25 09:36:12;;;;;;;0.30;0.30;;;;;;;22.58;64.45;100408.41;5074587;28;20050;-63
2023/09/25 09:38:43;;;;;;;1.27;1.02;;;;;;;22.71;64.64;100405.38;5075376;28;20054;-62
2023/09/25 09:41:13;;;;;;;0.60;0.60;;;;;;;22.97;65.12;100408.66;5073926;28;20048;-62
2023/09/25 09:43:42;;;;;;;0.50;0.50;;;;;;;23.07;64.76;100404.78;5073560;28;20049;-62
2023/09/25 09:46:12;;;;;;;;;;;;;;;23.13;64.12;100406.31;5073205;28;20064;-62
2023/09/25 09:48:47;;;;;;;1.70;1.60;;;;;;;23.20;63.89;100407.75;5073249;28;20422;-63
2023/09/25 09:51:18;;;;;;;0.47;0.47;;;;;;;23.54;64.78;100412.44;5070090;28;20044;-62
2023/09/25 09:53:48;;;;;;;0.50;0.50;;;;;;;23.72;64.52;100407.28;5073173;28;20488;-62
2023/09/25 09:56:20;;;;;;;0.40;0.40;;;;;;;23.77;63.99;100420.13;5073683;28;20051;-62
2023/09/25 09:58:51;;;;;;;1.23;1.13;;;;;;;23.82;63.48;100419.03;5073680;28;20396;-63
2023/09/25 10:01:23;;;;;;;0.47;0.47;;;;;;;23.68;62.56;100416.13;5072972;28;20045;-62
2023/09/25 10:03:55;;;;;;;0.63;0.63;;;;;;;23.69;62.16;100417.00;5073864;28;20052;-62
2023/09/25 10:06:26;;;;;;;0.50;0.50;;;;;;;23.73;61.59;100418.56;5073447;28;20041;-63
2023/09/25 10:09:03;;;;;;;0.70;0.70;;;;;;;23.73;61.43;100419.41;5073463;28;20048;-63
2023/09/25 10:11:32;;;;;;;13.07;1.48;;;;;;;23.99;61.28;100416.50;5072323;28;20048;-64
2023/09/25 10:14:04;;;;;;;0.40;0.40;;;;;;;24.20;61.26;100416.50;5053621;28;20041;-62
2023/09/25 10:16:56;;;;;;;0.43;0.43;;;;;;;24.23;60.69;100414.63;5053481;28;20500;-63
2023/09/25 10:19:49;;;;;;;0.40;0.40;;;;;;;24.26;61.33;100411.03;5053569;28;20036;-63
2023/09/25 10:22:20;;;;;;;0.40;0.40;;;;;;;24.26;60.89;100414.47;5072094;28;20547;-62
2023/09/25 10:24:59;;;;;;;0.40;0.40;;;;;;;24.34;60.88;100416.72;5073303;28;20045;-62
2023/09/25 10:27:31;;;;;;;;;;;;;;;24.46;60.81;100406.59;5073740;28;20041;-63
2023/09/25 10:30:11;;;;;;;0.50;0.50;;;;;;;24.45;60.74;100411.91;5072574;28;19920;-65
2023/09/25 10:32:42;;;;;;;6.20;1.02;;;;;;;24.59;61.36;100401.66;5053288;28;20111;-63
2023/09/25 10:35:40;;;;;;;0.43;0.43;;;;;;;24.47;61.18;100407.44;5053441;28;20489;-63
2023/09/25 10:38:13;;;;;;;0.73;0.60;;;;;;;24.11;61.04;100406.50;5070194;28;20090;-63
2023/09/25 10:40:47;;;;;;;0.40;0.40;;;;;;;23.98;61.01;100409.63;5072276;28;20293;-63
2023/09/25 10:43:19;;;;;;;0.40;0.40;;;;;;;23.98;61.62;100414.81;5072318;28;20070;-63
2023/09/25 10:45:49;;;;;;;0.40;0.40;;;;;;;23.88;62.06;100423.97;5072976;28;20068;-63
2023/09/25 10:48:18;;;;;;;1.08;0.98;;;;;;;23.68;62.43;100421.34;5071949;28;20036;-62
2023/09/25 10:50:48;;;;;;;0.43;0.43;;;;;;;23.52;63.06;100425.53;5072046;28;20037;-63
2023/09/25 10:53:21;;;;;;;4.30;1.52;;;;;;;23.38;63.33;100422.66;5073268;28;20040;-63
2023/09/25 10:55:50;;;;;;;1.65;1.08;;;;;;;23.31;63.50;100421.16;5077005;28;20067;-63
2023/09/25 10:58:21;;;;;;;4.18;1.13;;;;;;;23.30;63.71;100414.25;5076808;28;20048;-63
2023/09/25 11:00:50;;;;;;;0.50;0.50;;;;;;;23.28;63.98;100410.88;5075161;28;20118;-63
2023/09/25 11:03:20;;;;;;;1.55;1.10;;;;;;;23.27;64.05;100411.78;5074887;28;20036;-63
2023/09/25 11:05:53;;;;;;;0.40;0.40;;;;;;;23.33;64.33;100420.19;5076394;28;20040;-63
2023/09/25 11:08:23;;;;;;;0.50;0.50;;;;;;;23.41;64.45;100412.09;5077012;28;20048;-63
2023/09/25 11:10:52;;;;;;;0.40;0.40;;;;;;;23.77;64.32;100413.16;5076716;28;20056;-63
2023/09/25 11:13:21;;;;;;;0.80;0.80;;;;;;;24.20;63.18;100403.47;5076087;28;20072;-63
2023/09/25 11:15:52;;;;;;;0.52;0.52;;;;;;;24.47;61.34;100404.84;5076493;28;20518;-62
2023/09/25 11:18:21;;;;;;;;;;;;;;;24.59;60.82;100405.09;5077702;28;20442;-63
2023/09/25 11:20:52;;;;;;;0.60;0.60;;;;;;;24.76;60.18;100404.31;5076721;28;20382;-63
2023/09/25 11:23:21;;;;;;;0.50;0.50;;;;;;;24.87;60.01;100396.84;5076390;28;20044;-63
2023/09/25 11:25:53;;;;;;;3.22;0.65;;;;;;;25.05;60.00;100389.91;5079742;28;20039;-63
2023/09/25 11:28:26;;;;;;;0.40;0.40;;;;;;;25.16;59.99;100388.44;5076276;28;20055;-63
2023/09/25 11:30:56;;;;;;;0.47;0.47;;;;;;;25.10;59.45;100393.97;5076555;28;20452;-63
2023/09/25 11:33:28;;;;;;;1.08;0.73;;;;;;;25.14;59.11;100390.28;5076518;28;20068;-63
2023/09/25 11:35:58;;;;;;;0.50;0.50;;;;;;;25.37;58.67;100393.50;5076263;28;20049;-63
2023/09/25 11:38:30;;;;;;;0.73;0.73;;;;;;;25.57;58.30;100391.63;5076536;28;20127;-63
2023/09/25 11:41:05;;;;;;;0.40;0.40;;;;;;;25.67;57.69;100386.78;5075632;28;20043;-63